createdAt,value
2017-11-18T00:00:48.827Z,2.20
2017-11-18T00:03:18.060Z,2.40
2017-11-18T00:05:48.012Z,2.30
2017-11-18T00:08:16.549Z,2.80
2017-11-18T00:10:48.603Z,2.80
2017-11-18T00:13:24.664Z,3.70
2017-11-18T00:15:54.205Z,3.10
2017-11-18T00:18:23.226Z,3.00
2017-11-18T00:20:55.389Z,2.30
2017-11-18T00:23:31.248Z,2.10
2017-11-18T00:26:01.074Z,2.30
2017-11-18T00:28:33.047Z,2.20
2017-11-18T00:31:02.362Z,2.30
2017-11-18T00:33:31.456Z,2.40
2017-11-18T00:35:59.691Z,2.20
2017-11-18T00:38:29.023Z,2.30
2017-11-18T00:40:58.500Z,2.20
2017-11-18T00:43:27.364Z,2.20
2017-11-18T00:45:57.730Z,2.20
2017-11-18T00:48:28.131Z,2.30
2017-11-18T00:50:56.409Z,2.40
2017-11-18T00:53:24.696Z,2.40
2017-11-18T00:55:54.116Z,2.10
2017-11-18T00:58:24.555Z,2.00
2017-11-18T01:00:56.204Z,2.00
2017-11-18T01:03:27.314Z,2.20
2017-11-18T01:06:06.163Z,2.20
2017-11-18T01:08:35.359Z,2.20
2017-11-18T01:11:05.496Z,2.70
2017-11-18T01:13:34.031Z,2.70
2017-11-18T01:16:09.861Z,2.30
2017-11-18T01:18:39.512Z,2.40
2017-11-18T01:21:11.124Z,2.30
2017-11-18T01:23:39.910Z,2.30
2017-11-18T01:26:09.124Z,2.50
2017-11-18T01:28:38.022Z,2.20
2017-11-18T01:31:12.111Z,2.30
2017-11-18T01:33:41.430Z,2.40
2017-11-18T01:36:15.128Z,3.40
2017-11-18T01:38:45.701Z,3.10
2017-11-18T01:41:15.197Z,3.70
2017-11-18T01:43:52.157Z,3.70
2017-11-18T01:46:23.944Z,3.70
2017-11-18T01:48:54.357Z,3.10
2017-11-18T01:51:23.516Z,3.50
2017-11-18T01:53:52.195Z,3.40
2017-11-18T01:56:20.766Z,3.20
2017-11-18T01:58:50.193Z,2.90
2017-11-18T02:01:19.537Z,2.50
2017-11-18T02:03:50.846Z,2.80
2017-11-18T02:06:20.492Z,2.70
2017-11-18T02:08:50.387Z,2.60
2017-11-18T02:11:20.121Z,3.40
2017-11-18T02:13:49.327Z,3.40
2017-11-18T02:16:18.247Z,3.80
2017-11-18T02:18:46.670Z,3.70
2017-11-18T02:21:16.296Z,2.40
2017-11-18T02:23:45.748Z,2.50
2017-11-18T02:26:15.416Z,2.50
2017-11-18T02:28:43.988Z,2.70
2017-11-18T02:31:13.321Z,3.40
2017-11-18T02:33:42.303Z,3.40
2017-11-18T02:36:13.537Z,3.90
2017-11-18T02:38:49.306Z,4.10
2017-11-18T02:41:18.472Z,3.80
2017-11-18T02:43:48.212Z,4.20
2017-11-18T02:46:16.581Z,4.70
2017-11-18T02:48:45.329Z,4.60
2017-11-18T02:51:15.072Z,4.50
2017-11-18T02:53:44.804Z,4.50
2017-11-18T02:56:13.323Z,4.20
2017-11-18T02:58:42.467Z,4.20
2017-11-18T03:01:21.508Z,4.40
2017-11-18T03:03:51.296Z,4.50
2017-11-18T03:06:26.673Z,4.50
2017-11-18T03:08:55.435Z,4.50
2017-11-18T03:11:23.845Z,4.70
2017-11-18T03:13:52.804Z,4.30
2017-11-18T03:16:25.856Z,4.30
2017-11-18T03:18:56.099Z,3.90
2017-11-18T03:21:25.057Z,3.90
2017-11-18T03:23:53.672Z,3.80
2017-11-18T03:26:25.213Z,3.80
2017-11-18T03:28:54.121Z,3.60
2017-11-18T03:31:23.043Z,3.60
2017-11-18T03:33:51.981Z,3.40
2017-11-18T03:36:32.250Z,3.00
2017-11-18T03:39:01.868Z,3.30
2017-11-18T03:41:31.843Z,3.30
2017-11-18T03:44:04.080Z,3.80
2017-11-18T03:46:32.899Z,3.80
2017-11-18T03:49:04.346Z,3.20
2017-11-18T03:51:34.121Z,3.00
2017-11-18T03:54:03.458Z,2.80
2017-11-18T03:56:33.305Z,3.10
2017-11-18T03:59:04.655Z,3.00
2017-11-18T04:01:35.671Z,2.70
2017-11-18T04:04:05.254Z,2.70
2017-11-18T04:06:35.254Z,2.50
2017-11-18T04:09:04.163Z,2.50
2017-11-18T04:11:39.652Z,2.50
2017-11-18T04:14:11.909Z,2.60
2017-11-18T04:16:41.359Z,3.00
2017-11-18T04:19:10.356Z,3.00
2017-11-18T04:21:39.486Z,3.40
2017-11-18T04:24:08.510Z,3.00
2017-11-18T04:26:41.654Z,3.10
2017-11-18T04:29:24.416Z,3.10
2017-11-18T04:31:56.051Z,4.20
2017-11-18T04:34:25.382Z,3.80
2017-11-18T04:36:54.179Z,3.80
2017-11-18T04:39:23.655Z,3.70
2017-11-18T04:42:03.750Z,4.40
2017-11-18T04:44:34.049Z,4.40
2017-11-18T04:47:03.885Z,3.90
2017-11-18T04:49:33.380Z,4.10
2017-11-18T04:52:03.355Z,4.30
2017-11-18T04:54:33.721Z,4.00
2017-11-18T04:57:02.970Z,4.00
2017-11-18T04:59:35.524Z,4.60
2017-11-18T05:02:05.109Z,4.60
2017-11-18T05:04:36.341Z,5.10
2017-11-18T05:07:11.844Z,5.10
2017-11-18T05:09:40.358Z,5.20
2017-11-18T05:12:08.963Z,5.00
2017-11-18T05:14:38.431Z,5.00
2017-11-18T05:17:07.223Z,4.60
2017-11-18T05:19:36.115Z,4.30
2017-11-18T05:22:10.515Z,4.20
2017-11-18T05:24:41.195Z,3.20
2017-11-18T05:27:11.554Z,3.70
2017-11-18T05:29:40.864Z,3.80
2017-11-18T05:32:09.781Z,3.80
2017-11-18T05:34:39.274Z,4.30
2017-11-18T05:37:09.659Z,3.70
2017-11-18T05:39:38.882Z,3.70
2017-11-18T05:42:10.451Z,3.40
2017-11-18T05:44:39.764Z,3.40
2017-11-18T05:47:08.282Z,3.40
2017-11-18T05:49:36.703Z,3.30
2017-11-18T05:52:05.799Z,3.10
2017-11-18T05:54:35.413Z,3.10
2017-11-18T05:57:05.582Z,3.20
2017-11-18T05:59:34.453Z,3.20
2017-11-18T06:02:04.038Z,2.90
2017-11-18T06:04:32.553Z,2.90
2017-11-18T06:07:01.305Z,3.30
2017-11-18T06:09:29.861Z,4.30
2017-11-18T06:11:59.440Z,3.60
2017-11-18T06:14:30.027Z,4.20
2017-11-18T06:17:08.994Z,4.50
2017-11-18T06:19:38.505Z,4.40
2017-11-18T06:22:07.940Z,4.30
2017-11-18T06:24:37.109Z,5.00
2017-11-18T06:27:09.575Z,4.90
2017-11-18T06:29:39.803Z,5.00
2017-11-18T06:32:09.381Z,5.00
2017-11-18T06:34:37.678Z,5.20
2017-11-18T06:37:05.985Z,5.10
2017-11-18T06:39:34.512Z,5.10
2017-11-18T06:42:03.051Z,4.70
2017-11-18T06:44:31.362Z,4.50
2017-11-18T06:47:02.586Z,4.60
2017-11-18T06:49:31.611Z,4.50
2017-11-18T06:51:59.876Z,4.50
2017-11-18T06:54:28.316Z,4.20
2017-11-18T06:56:56.568Z,4.20
2017-11-18T06:59:28.111Z,4.40
2017-11-18T07:01:59.216Z,4.40
2017-11-18T07:04:27.869Z,4.40
2017-11-18T07:06:57.241Z,3.90
2017-11-18T07:09:25.577Z,3.30
2017-11-18T07:11:55.565Z,3.70
2017-11-18T07:14:24.761Z,4.70
2017-11-18T07:16:53.032Z,4.70
2017-11-18T07:19:21.272Z,4.80
2017-11-18T07:21:49.574Z,5.00
2017-11-18T07:24:18.911Z,5.30
2017-11-18T07:26:48.053Z,5.40
2017-11-18T07:29:20.229Z,5.30
2017-11-18T07:31:50.227Z,5.40
2017-11-18T07:34:20.549Z,5.50
2017-11-18T07:36:48.911Z,5.30
2017-11-18T07:39:17.328Z,5.40
2017-11-18T07:41:46.572Z,5.20
2017-11-18T07:44:15.689Z,5.60
2017-11-18T07:46:44.009Z,5.70
2017-11-18T07:49:12.411Z,5.80
2017-11-18T07:51:41.598Z,5.90
2017-11-18T07:54:10.662Z,5.90
2017-11-18T07:56:39.377Z,5.90
2017-11-18T07:59:09.458Z,6.00
2017-11-18T08:01:38.708Z,6.10
2017-11-18T08:04:10.700Z,6.10
2017-11-18T08:06:40.162Z,6.10
2017-11-18T08:09:13.527Z,6.20
2017-11-18T08:11:42.212Z,6.20
2017-11-18T08:14:11.291Z,6.20
2017-11-18T08:16:42.952Z,6.30
2017-11-18T08:19:19.198Z,6.40
2017-11-18T08:21:48.458Z,6.30
2017-11-18T08:24:18.119Z,5.70
2017-11-18T08:26:46.482Z,6.20
2017-11-18T08:29:18.115Z,6.30
2017-11-18T08:31:51.233Z,6.30
2017-11-18T08:34:20.815Z,6.30
2017-11-18T08:36:50.137Z,6.40
2017-11-18T08:39:18.420Z,6.20
2017-11-18T08:41:48.892Z,6.40
2017-11-18T08:44:18.106Z,6.40
2017-11-18T08:46:47.137Z,6.40
2017-11-18T08:49:16.880Z,6.50
2017-11-18T08:51:47.623Z,6.50
2017-11-18T08:54:17.438Z,6.10
2017-11-18T08:56:46.328Z,6.10
2017-11-18T08:59:16.289Z,6.30
2017-11-18T09:01:45.014Z,6.20
2017-11-18T09:04:20.469Z,6.10
2017-11-18T09:06:50.898Z,6.30
2017-11-18T09:09:20.190Z,6.50
2017-11-18T09:11:48.491Z,6.90
2017-11-18T09:14:18.797Z,6.80
2017-11-18T09:16:50.934Z,6.80
2017-11-18T09:19:20.587Z,6.90
2017-11-18T09:21:52.668Z,7.10
2017-11-18T09:24:21.422Z,7.10
2017-11-18T09:26:50.097Z,6.90
2017-11-18T09:29:19.254Z,6.60
2017-11-18T09:31:48.223Z,6.70
2017-11-18T09:34:17.761Z,6.80
2017-11-18T09:36:46.373Z,6.80
2017-11-18T09:39:15.910Z,6.80
2017-11-18T09:41:47.076Z,6.90
2017-11-18T09:44:16.355Z,6.70
2017-11-18T09:46:45.928Z,6.70
2017-11-18T09:49:15.544Z,6.70
2017-11-18T09:51:44.148Z,6.80
2017-11-18T09:54:19.768Z,6.80
2017-11-18T09:56:49.136Z,6.80
2017-11-18T09:59:18.589Z,6.80
2017-11-18T10:01:47.963Z,6.90
2017-11-18T10:04:23.821Z,6.90
2017-11-18T10:06:56.436Z,6.90
2017-11-18T10:09:28.797Z,6.90
2017-11-18T10:12:00.627Z,6.90
2017-11-18T10:14:29.505Z,6.10
2017-11-18T10:16:59.444Z,6.10
2017-11-18T10:19:32.571Z,6.10
2017-11-18T10:22:02.089Z,6.20
2017-11-18T10:24:33.581Z,6.50
2017-11-18T10:27:02.490Z,6.60
2017-11-18T10:29:32.857Z,6.10
2017-11-18T10:32:04.592Z,6.10
2017-11-18T10:34:34.584Z,6.10
2017-11-18T10:37:04.089Z,6.20
2017-11-18T10:39:34.718Z,6.10
2017-11-18T10:42:04.063Z,6.50
2017-11-18T10:44:32.726Z,6.20
2017-11-18T10:47:02.333Z,6.20
2017-11-18T10:49:31.904Z,5.80
2017-11-18T10:52:01.305Z,5.80
2017-11-18T10:54:30.981Z,5.90
2017-11-18T10:57:03.632Z,6.10
2017-11-18T10:59:33.940Z,6.10
2017-11-18T11:02:04.578Z,6.10
2017-11-18T11:04:37.128Z,6.30
2017-11-18T11:07:05.685Z,6.20
2017-11-18T11:09:35.420Z,6.30
2017-11-18T11:12:03.783Z,6.60
2017-11-18T11:14:33.181Z,6.80
2017-11-18T11:17:04.658Z,6.70
2017-11-18T11:19:33.932Z,6.60
2017-11-18T11:22:03.647Z,6.40
2017-11-18T11:24:31.898Z,6.40
2017-11-18T11:27:03.352Z,6.40
2017-11-18T11:29:32.012Z,6.50
2017-11-18T11:32:01.391Z,6.60
2017-11-18T11:34:31.612Z,6.50
2017-11-18T11:37:01.408Z,6.50
2017-11-18T11:39:30.516Z,6.60
2017-11-18T11:41:59.612Z,6.80
2017-11-18T11:44:31.127Z,6.80
2017-11-18T11:46:59.600Z,6.70
2017-11-18T11:49:30.267Z,7.00
2017-11-18T11:51:58.835Z,7.00
2017-11-18T11:54:28.264Z,7.00
2017-11-18T11:56:57.455Z,6.80
2017-11-18T11:59:25.968Z,6.80
2017-11-18T12:01:54.540Z,6.90
2017-11-18T12:04:23.838Z,7.00
2017-11-18T12:06:52.923Z,6.90
2017-11-18T12:09:22.853Z,6.70
2017-11-18T12:11:52.674Z,6.70
2017-11-18T12:14:22.252Z,6.80
2017-11-18T12:16:51.012Z,7.00
2017-11-18T12:19:23.085Z,7.10
2017-11-18T12:21:51.468Z,7.10
2017-11-18T12:24:22.615Z,7.00
2017-11-18T12:26:51.546Z,7.30
2017-11-18T12:29:20.117Z,7.10
2017-11-18T12:31:48.461Z,7.00
2017-11-18T12:34:17.162Z,7.20
2017-11-18T12:36:46.569Z,7.60
2017-11-18T12:39:16.501Z,7.70
2017-11-18T12:41:45.597Z,7.70
2017-11-18T12:44:15.177Z,7.30
2017-11-18T12:46:44.585Z,7.80
2017-11-18T12:49:16.729Z,7.50
2017-11-18T12:51:45.023Z,7.50
2017-11-18T12:54:15.201Z,7.50
2017-11-18T12:56:43.675Z,7.50
2017-11-18T12:59:18.511Z,7.60
2017-11-18T13:01:47.114Z,7.60
2017-11-18T13:04:16.372Z,7.50
2017-11-18T13:06:45.205Z,7.70
2017-11-18T13:09:14.774Z,7.70
2017-11-18T13:11:53.504Z,7.50
2017-11-18T13:14:25.788Z,7.80
2017-11-18T13:16:58.519Z,7.80
2017-11-18T13:19:30.105Z,7.90
2017-11-18T13:21:59.868Z,7.90
2017-11-18T13:24:29.543Z,7.80
2017-11-18T13:26:58.032Z,7.80
2017-11-18T13:29:26.378Z,7.80
2017-11-18T13:31:54.954Z,7.80
2017-11-18T13:34:23.740Z,7.80
2017-11-18T13:36:54.025Z,7.70
2017-11-18T13:39:24.492Z,7.60
2017-11-18T13:41:52.937Z,7.60
2017-11-18T13:44:22.577Z,7.50
2017-11-18T13:46:50.920Z,7.50
2017-11-18T13:49:20.404Z,7.20
2017-11-18T13:51:48.927Z,7.20
2017-11-18T13:54:17.538Z,7.50
2017-11-18T13:56:45.873Z,7.70
2017-11-18T13:59:16.032Z,7.60
2017-11-18T14:01:46.275Z,7.60
2017-11-18T14:04:16.329Z,7.80
2017-11-18T14:06:46.003Z,7.60
2017-11-18T14:09:24.805Z,7.60
2017-11-18T14:11:53.785Z,7.80
2017-11-18T14:14:24.322Z,7.50
2017-11-18T14:16:54.099Z,7.40
2017-11-18T14:19:24.168Z,7.70
2017-11-18T14:21:53.951Z,7.70
2017-11-18T14:24:22.886Z,7.70
2017-11-18T14:26:51.192Z,7.50
2017-11-18T14:29:20.464Z,7.70
2017-11-18T14:31:49.000Z,7.70
2017-11-18T14:34:18.090Z,7.70
2017-11-18T14:36:49.762Z,7.60
2017-11-18T14:39:18.303Z,7.60
2017-11-18T14:41:47.484Z,7.50
2017-11-18T14:44:16.733Z,7.50
2017-11-18T14:46:47.104Z,7.50
2017-11-18T14:49:15.698Z,7.60
2017-11-18T14:51:45.639Z,7.70
2017-11-18T14:54:17.124Z,7.70
2017-11-18T14:56:45.384Z,7.60
2017-11-18T14:59:13.744Z,7.50
2017-11-18T15:01:42.270Z,7.50
2017-11-18T15:04:10.910Z,7.60
2017-11-18T15:06:40.899Z,7.70
2017-11-18T15:09:10.396Z,7.70
2017-11-18T15:11:39.080Z,7.70
2017-11-18T15:14:08.035Z,7.60
2017-11-18T15:16:43.020Z,7.50
2017-11-18T15:19:17.482Z,7.60
2017-11-18T15:21:51.822Z,7.60
2017-11-18T15:24:26.527Z,7.60
2017-11-18T15:27:01.306Z,7.70
2017-11-18T15:42:58.614Z,7.20
2017-11-18T15:45:43.806Z,7.20
2017-11-18T15:48:18.362Z,7.10
2017-11-18T15:50:52.205Z,7.20
2017-11-18T15:53:26.205Z,7.30
2017-11-18T15:56:01.411Z,7.50
2017-11-18T15:58:37.522Z,6.40
2017-11-18T16:01:11.689Z,6.30
2017-11-18T16:03:43.213Z,6.00
2017-11-18T16:06:11.540Z,6.20
2017-11-18T16:08:40.768Z,6.20
2017-11-18T16:11:10.619Z,6.30
2017-11-18T16:13:39.698Z,5.90
2017-11-18T16:16:08.079Z,5.90
2017-11-18T16:18:38.859Z,5.50
2017-11-18T16:21:08.981Z,5.40
2017-11-18T16:23:37.943Z,5.60
2017-11-18T16:26:08.308Z,5.60
2017-11-18T16:28:40.059Z,5.60
2017-11-18T16:31:08.488Z,5.80
2017-11-18T16:33:38.555Z,5.50
2017-11-18T16:36:06.923Z,5.40
2017-11-18T16:38:35.419Z,5.50
2017-11-18T16:41:06.807Z,5.60
2017-11-18T16:43:39.092Z,5.60
2017-11-18T16:46:07.893Z,5.60
2017-11-18T16:48:37.319Z,6.00
2017-11-18T16:51:06.644Z,6.30
2017-11-18T16:53:35.192Z,6.70
2017-11-18T16:56:03.653Z,6.60
2017-11-18T16:58:32.311Z,6.50
2017-11-18T17:01:01.481Z,6.30
2017-11-18T17:03:29.977Z,6.30
2017-11-18T17:05:58.701Z,6.40
2017-11-18T17:08:27.610Z,6.20
2017-11-18T17:10:55.932Z,6.40
2017-11-18T17:13:24.940Z,6.60
2017-11-18T17:15:54.621Z,6.90
2017-11-18T17:18:23.294Z,6.80
2017-11-18T17:20:51.722Z,6.80
2017-11-18T17:23:21.149Z,6.80
2017-11-18T17:25:50.350Z,6.80
2017-11-18T17:28:18.992Z,7.00
2017-11-18T17:30:48.519Z,6.70
2017-11-18T17:33:20.976Z,7.00
2017-11-18T17:35:49.566Z,7.00
2017-11-18T17:38:18.758Z,7.00
2017-11-18T17:40:47.438Z,6.90
2017-11-18T17:43:16.042Z,6.80
2017-11-18T17:45:44.670Z,6.90
2017-11-18T17:48:13.296Z,6.90
2017-11-18T17:50:41.601Z,6.80
2017-11-18T17:53:10.352Z,6.90
2017-11-18T17:55:39.546Z,6.90
2017-11-18T17:58:08.138Z,7.00
2017-11-18T18:00:45.160Z,6.60
2017-11-18T18:03:13.830Z,6.60
2017-11-18T18:05:43.492Z,6.90
2017-11-18T18:08:14.652Z,7.00
2017-11-18T18:10:44.382Z,6.80
2017-11-18T18:13:12.663Z,6.90
2017-11-18T18:15:41.256Z,6.80
2017-11-18T18:18:09.814Z,7.00
2017-11-18T18:20:38.350Z,7.00
2017-11-18T18:23:06.608Z,6.70
2017-11-18T18:25:38.897Z,7.00
2017-11-18T18:28:08.764Z,7.00
2017-11-18T18:30:40.481Z,7.00
2017-11-18T18:33:09.112Z,7.00
2017-11-18T18:35:38.475Z,7.00
2017-11-18T18:38:06.967Z,6.80
2017-11-18T18:40:36.578Z,6.90
2017-11-18T18:43:06.060Z,6.50
2017-11-18T18:45:36.418Z,6.50
2017-11-18T18:48:07.209Z,6.70
2017-11-18T18:50:36.035Z,6.60
2017-11-18T18:53:11.464Z,6.20
2017-11-18T18:55:40.281Z,6.50
2017-11-18T18:58:08.548Z,6.80
2017-11-18T19:00:38.206Z,6.20
2017-11-18T19:03:06.598Z,6.20
2017-11-18T19:05:35.849Z,6.50
2017-11-18T19:08:04.956Z,6.50
2017-11-18T19:10:36.904Z,6.40
2017-11-18T19:13:06.022Z,6.60
2017-11-18T19:15:34.711Z,6.60
2017-11-18T19:18:03.344Z,6.70
2017-11-18T19:20:32.795Z,6.30
2017-11-18T19:23:09.128Z,6.30
2017-11-18T19:25:38.864Z,6.40
2017-11-18T19:28:08.885Z,6.00
2017-11-18T19:30:38.820Z,5.90
2017-11-18T19:33:07.068Z,5.20
2017-11-18T19:35:36.342Z,5.20
2017-11-18T19:38:05.831Z,5.10
2017-11-18T19:40:36.243Z,5.10
2017-11-18T19:43:04.775Z,5.10
2017-11-18T19:45:33.269Z,5.10
2017-11-18T19:48:01.546Z,5.10
2017-11-18T19:50:31.543Z,5.00
2017-11-18T19:53:01.344Z,5.00
2017-11-18T19:55:33.615Z,4.90
2017-11-18T19:58:02.786Z,4.70
2017-11-18T20:00:32.715Z,4.70
2017-11-18T20:03:02.265Z,4.80
2017-11-18T20:05:31.406Z,4.80
2017-11-18T20:08:01.477Z,4.70
2017-11-18T20:10:30.948Z,4.70
2017-11-18T20:13:00.088Z,4.70
2017-11-18T20:15:29.387Z,4.80
2017-11-18T20:17:59.130Z,4.80
2017-11-18T20:20:32.627Z,4.80
2017-11-18T20:23:05.670Z,4.60
2017-11-18T20:25:34.367Z,4.60
2017-11-18T20:28:03.825Z,4.50
2017-11-18T20:30:32.686Z,4.30
2017-11-18T20:33:04.286Z,4.30
2017-11-18T20:35:33.751Z,4.10
2017-11-18T20:38:03.357Z,3.90
2017-11-18T20:40:31.831Z,3.90
2017-11-18T20:43:03.475Z,3.80
2017-11-18T20:45:32.805Z,3.80
2017-11-18T20:48:03.074Z,3.80
2017-11-18T20:50:32.208Z,3.80
2017-11-18T20:53:07.742Z,3.70
2017-11-18T20:55:36.498Z,3.70
2017-11-18T20:58:04.968Z,3.70
2017-11-18T21:00:33.567Z,3.70
2017-11-18T21:06:07.041Z,3.70
2017-11-18T21:08:35.594Z,3.80
2017-11-18T21:11:03.882Z,3.80
2017-11-18T21:13:35.832Z,3.90
2017-11-18T21:16:04.303Z,3.90
2017-11-18T21:18:34.491Z,4.00
2017-11-18T21:21:04.707Z,4.00
2017-11-18T21:23:33.289Z,4.00
2017-11-18T21:26:03.847Z,4.10
2017-11-18T21:28:32.148Z,4.00
2017-11-18T21:31:01.372Z,4.00
2017-11-18T21:33:29.802Z,4.00
2017-11-18T21:35:58.125Z,3.90
2017-11-18T21:38:27.008Z,4.00
2017-11-18T21:40:55.299Z,4.00
2017-11-18T21:43:24.045Z,4.00
2017-11-18T21:45:54.060Z,4.00
2017-11-18T21:48:23.536Z,4.00
2017-11-18T21:50:52.115Z,3.90
2017-11-18T21:53:25.556Z,4.10
2017-11-18T21:55:54.952Z,4.00
2017-11-18T21:58:24.204Z,3.90
2017-11-18T22:00:53.053Z,3.90
2017-11-18T22:03:22.267Z,4.00
2017-11-18T22:05:51.840Z,4.00
2017-11-18T22:08:21.591Z,3.90
2017-11-18T22:10:50.406Z,3.90
2017-11-18T22:13:19.997Z,3.90
2017-11-18T22:15:48.459Z,4.00
2017-11-18T22:18:19.877Z,3.90
2017-11-18T22:20:48.443Z,3.90
2017-11-18T22:23:17.555Z,3.90
2017-11-18T22:25:47.115Z,3.90
2017-11-18T22:28:17.501Z,3.90
2017-11-18T22:30:46.500Z,3.90
2017-11-18T22:33:16.944Z,4.00
2017-11-18T22:35:45.477Z,4.00
2017-11-18T22:38:13.856Z,3.90
2017-11-18T22:40:42.402Z,4.00
2017-11-18T22:43:13.774Z,4.00
2017-11-18T22:45:42.233Z,4.00
2017-11-18T22:48:12.087Z,4.10
2017-11-18T22:50:40.903Z,4.00
2017-11-18T22:53:11.259Z,4.00
2017-11-18T22:55:40.459Z,4.00
2017-11-18T22:58:10.578Z,4.00
2017-11-18T23:00:42.949Z,4.00
2017-11-18T23:03:11.913Z,4.00
2017-11-18T23:05:42.260Z,4.10
2017-11-18T23:08:11.155Z,4.00
2017-11-18T23:10:41.605Z,4.10
2017-11-18T23:13:10.359Z,4.20
2017-11-18T23:15:39.754Z,4.20
2017-11-18T23:18:08.429Z,4.10
2017-11-18T23:20:37.776Z,4.10
2017-11-18T23:23:06.299Z,4.10
2017-11-18T23:25:35.361Z,4.10
2017-11-18T23:28:05.179Z,4.10
2017-11-18T23:30:33.794Z,4.10
2017-11-18T23:33:03.409Z,4.20
2017-11-18T23:35:32.934Z,4.20
2017-11-18T23:38:04.155Z,4.20
2017-11-18T23:40:34.448Z,4.20
2017-11-18T23:43:03.154Z,4.20
2017-11-18T23:45:32.655Z,4.20
2017-11-18T23:48:02.736Z,4.20
2017-11-18T23:50:31.459Z,4.20
2017-11-18T23:53:00.705Z,4.20
2017-11-18T23:55:29.554Z,4.20
2017-11-18T23:57:59.290Z,4.20
